Time;durP1;ratioP1;P1;durP2;ratioP2;P2;SDS_P1;SDS_P2;PMS_P1;PMS_P2;Temp;Humidity;BMP_temperature;BMP_pressure;BME280_temperature;BME280_humidity;BME280_pressure;Samples;Min_cycle;Max_cycle;Signal;HPM_P1;HPM_P2
2021/05/25 00:02:24;;;;;;;;;1.75;0.75;;;;;19.62;42.25;100560.78;4987342;28;45770;-70
2021/05/25 00:04:49;;;;;;;;;1.75;1.00;;;;;19.65;41.79;100564.22;5004419;28;45339;-71
2021/05/25 00:07:15;;;;;;;;;0.75;0.75;;;;;19.62;42.10;100566.09;5003544;28;45442;-71
2021/05/25 00:09:40;;;;;;;;;3.00;1.75;;;;;19.62;41.84;100566.94;4987189;28;53416;-71
2021/05/25 00:12:06;;;;;;;;;1.25;0.75;;;;;19.64;42.17;100578.38;4986915;28;55749;-70
2021/05/25 00:14:31;;;;;;;;;0.00;0.00;;;;;19.63;41.63;100565.16;5003955;28;45497;-70
2021/05/25 00:16:57;;;;;;;;;0.75;0.75;;;;;19.64;42.13;100586.34;5006730;28;64922;-70
2021/05/25 00:19:22;;;;;;;;;1.75;0.75;;;;;19.64;41.85;100585.47;4983412;28;47167;-71
2021/05/25 00:21:47;;;;;;;;;1.00;1.00;;;;;19.63;42.22;100584.56;4983656;28;47224;-71
2021/05/25 00:24:13;;;;;;;;;1.00;1.00;;;;;19.63;42.11;100589.00;5000139;28;45400;-71
2021/05/25 00:26:38;;;;;;;;;3.50;2.25;;;;;19.60;42.16;100603.19;5000237;28;45338;-70
2021/05/25 00:29:04;;;;;;;;;1.00;1.00;;;;;19.63;42.14;100605.75;4999725;28;49343;-71
2021/05/25 00:31:29;;;;;;;;;0.75;0.75;;;;;19.65;41.40;100603.94;4983658;28;45387;-72
2021/05/25 00:33:55;;;;;;;;;1.00;1.00;;;;;19.67;42.09;100606.53;5000020;28;45780;-71
2021/05/25 00:36:22;;;;;;;;;1.25;1.25;;;;;19.68;41.85;100617.06;5019228;28;51814;-72
2021/05/25 00:38:47;;;;;;;;;1.00;1.00;;;;;19.67;42.29;100620.66;5003218;28;47163;-72
2021/05/25 00:41:12;;;;;;;;;0.75;0.75;;;;;19.69;41.68;100618.81;5018864;28;64437;-72
2021/05/25 00:43:41;;;;;;;;;1.50;0.50;;;;;19.68;41.59;100625.03;5019942;28;45300;-71
2021/05/25 00:46:06;;;;;;;;;1.00;1.00;;;;;19.66;41.52;100632.16;5021042;28;45477;-71
2021/05/25 00:48:31;;;;;;;;;2.50;0.00;;;;;19.60;41.53;100639.41;5002995;28;45907;-72
2021/05/25 00:51:00;;;;;;;;;1.75;1.75;;;;;19.59;42.01;100654.41;4986238;28;55459;-72
2021/05/25 00:53:27;;;;;;;;;1.00;1.00;;;;;19.57;41.45;100653.59;5003170;28;45326;-72
2021/05/25 00:55:52;;;;;;;;;1.25;1.25;;;;;19.52;41.65;100662.56;5003245;28;45506;-72
2021/05/25 00:58:18;;;;;;;;;1.00;1.00;;;;;19.40;41.64;100645.25;5019617;28;45611;-72
2021/05/25 01:00:45;;;;;;;;;2.00;1.00;;;;;19.45;41.73;100668.00;5018840;28;55797;-71
2021/05/25 01:03:11;;;;;;;;;0.00;0.00;;;;;19.42;41.36;100661.94;5020828;28;45315;-72
2021/05/25 01:05:37;;;;;;;;;1.25;1.00;;;;;19.45;41.73;100665.34;5002932;28;45854;-72
2021/05/25 01:08:02;;;;;;;;;0.50;0.50;;;;;19.45;41.95;100661.84;5036240;28;46559;-72
2021/05/25 01:10:37;;;;;;;;;0.50;0.50;;;;;19.42;42.14;100667.25;5019310;28;45317;-72
2021/05/25 01:13:12;;;;;;;;;1.75;1.25;;;;;19.40;41.94;100669.06;5019751;28;45321;-72
2021/05/25 01:15:39;;;;;;;;;1.50;0.50;;;;;19.39;42.29;100672.63;5002347;28;45433;-72
2021/05/25 01:18:04;;;;;;;;;1.75;1.75;;;;;19.36;42.00;100665.63;5011935;28;47631;-72
2021/05/25 01:20:32;;;;;;;;;2.00;1.25;;;;;19.38;42.26;100674.41;5049955;28;45412;-70
2021/05/25 01:22:58;;;;;;;;;1.50;1.25;;;;;19.32;41.92;100666.63;5023050;28;45416;-72
2021/05/25 01:25:24;;;;;;;;;2.75;1.00;;;;;19.32;42.62;100677.22;5025097;28;61808;-72
2021/05/25 01:27:57;;;;;;;;;1.00;0.75;;;;;19.36;42.17;100693.88;5022612;28;46225;-70
2021/05/25 01:30:24;;;;;;;;;3.00;2.00;;;;;19.34;42.38;100704.50;5003201;28;45295;-72
2021/05/25 01:32:50;;;;;;;;;2.25;1.50;;;;;19.37;42.74;100717.69;5019128;28;45282;-72
2021/05/25 01:35:15;;;;;;;;;0.00;0.00;;;;;19.38;42.36;100737.06;4986401;28;45505;-71
2021/05/25 01:37:41;;;;;;;;;2.00;1.50;;;;;19.34;42.67;100732.75;5018775;28;47794;-71
2021/05/25 01:40:07;;;;;;;;;2.75;1.75;;;;;19.34;42.92;100738.91;5019260;28;45382;-71
2021/05/25 01:42:35;;;;;;;;;1.50;1.50;;;;;19.32;42.79;100738.09;4983911;28;45383;-71
2021/05/25 01:45:00;;;;;;;;;1.75;0.75;;;;;19.31;42.84;100740.78;4994836;28;45342;-72
2021/05/25 01:47:26;;;;;;;;;1.00;1.00;;;;;19.25;43.22;100733.00;5014070;28;45410;-71
2021/05/25 01:49:51;;;;;;;;;2.50;1.50;;;;;19.24;43.15;100737.41;4994889;28;45273;-71
2021/05/25 01:52:18;;;;;;;;;1.50;1.50;;;;;19.22;42.76;100741.88;5014352;28;45268;-71
2021/05/25 01:54:44;;;;;;;;;1.75;1.00;;;;;19.21;43.00;100742.81;5022459;28;45352;-71
2021/05/25 01:57:09;;;;;;;;;0.50;0.50;;;;;19.19;43.10;100747.25;5021951;28;47237;-72
2021/05/25 01:59:34;;;;;;;;;0.75;0.75;;;;;19.16;43.42;100749.97;5005497;28;50120;-71
2021/05/25 02:02:00;;;;;;;;;0.50;0.50;;;;;19.15;42.98;100745.59;5021619;28;55662;-71
2021/05/25 02:04:25;;;;;;;;;0.00;0.00;;;;;19.15;43.07;100738.53;5038344;28;45571;-71
2021/05/25 02:06:52;;;;;;;;;1.75;1.75;;;;;19.12;43.44;100740.41;5038541;28;45565;-72
2021/05/25 02:09:18;;;;;;;;;1.00;1.00;;;;;19.08;42.85;100750.16;5038678;28;45359;-72
2021/05/25 02:11:43;;;;;;;;;3.50;3.00;;;;;19.05;43.73;100752.91;5021323;28;58208;-72
2021/05/25 02:14:09;;;;;;;;;0.75;0.75;;;;;19.07;43.26;100751.09;5005480;28;45629;-72
2021/05/25 02:16:34;;;;;;;;;3.75;0.75;;;;;19.04;43.73;100748.53;5011852;28;53886;-72
2021/05/25 02:18:59;;;;;;;;;3.25;1.50;;;;;19.09;43.99;100758.97;4986421;28;64868;-72
2021/05/25 02:21:25;;;;;;;;;0.75;0.75;;;;;19.15;43.79;100767.63;5021486;28;52778;-72
2021/05/25 02:23:50;;;;;;;;;1.50;1.50;;;;;19.17;43.72;100768.47;5005055;28;45781;-72
2021/05/25 02:26:16;;;;;;;;;1.25;1.25;;;;;19.16;43.88;100771.16;5005026;28;47189;-72
2021/05/25 02:28:41;;;;;;;;;2.25;2.25;;;;;19.15;43.35;100761.47;5021998;28;45407;-72
2021/05/25 02:31:07;;;;;;;;;1.75;0.75;;;;;19.12;43.83;100765.06;5005206;28;45295;-72
2021/05/25 02:33:32;;;;;;;;;0.50;0.50;;;;;19.10;43.64;100766.88;5021621;28;45244;-72
2021/05/25 02:35:58;;;;;;;;;2.00;2.00;;;;;19.12;43.73;100770.38;5038093;28;46235;-72
2021/05/25 02:38:24;;;;;;;;;1.25;1.25;;;;;19.11;44.01;100767.72;5021510;28;45287;-72
2021/05/25 02:40:50;;;;;;;;;1.00;1.00;;;;;19.10;44.06;100763.34;5011472;28;45247;-72
2021/05/25 02:43:20;;;;;;;;;3.00;3.00;;;;;19.09;43.98;100764.25;5038307;28;45439;-72
2021/05/25 02:45:45;;;;;;;;;1.50;1.00;;;;;19.11;43.96;100768.63;5021300;28;46878;-72
2021/05/25 02:48:11;;;;;;;;;2.00;2.00;;;;;19.10;44.42;100769.50;5021168;28;50039;-72
2021/05/25 02:50:36;;;;;;;;;1.00;1.00;;;;;19.07;43.93;100774.03;5021427;28;45349;-72
2021/05/25 02:53:02;;;;;;;;;2.50;1.25;;;;;19.10;44.19;100781.88;5024223;28;45248;-72
2021/05/25 02:55:31;;;;;;;;;1.50;1.50;;;;;19.09;43.77;100772.19;5011258;28;48017;-72
2021/05/25 02:57:57;;;;;;;;;0.75;0.75;;;;;19.08;44.33;100779.28;5005140;28;45444;-72
2021/05/25 03:00:27;;;;;;;;;3.00;1.00;;;;;19.12;43.62;100780.94;5005022;28;45447;-72
2021/05/25 03:02:52;;;;;;;;;2.50;1.00;;;;;19.12;43.97;100780.94;4988290;28;45663;-72
2021/05/25 03:05:18;;;;;;;;;2.00;2.00;;;;;19.11;44.15;100776.56;4988035;28;47250;-72
2021/05/25 03:07:45;;;;;;;;;1.00;1.00;;;;;19.15;44.36;100780.00;4988080;28;55031;-72
2021/05/25 03:10:13;;;;;;;;;1.00;1.00;;;;;19.18;43.55;100783.41;5005034;28;45562;-72
2021/05/25 03:12:38;;;;;;;;;1.00;1.00;;;;;19.10;43.26;100785.38;5004787;28;45250;-72
2021/05/25 03:15:08;;;;;;;;;1.50;0.75;;;;;19.13;43.73;100803.84;5004388;28;46508;-72
2021/05/25 03:17:33;;;;;;;;;4.00;2.00;;;;;19.14;44.22;100804.72;4996675;28;46159;-72
2021/05/25 03:19:59;;;;;;;;;2.00;1.25;;;;;19.15;44.25;100801.16;5004470;28;45266;-72
2021/05/25 03:22:24;;;;;;;;;2.25;1.25;;;;;19.17;44.09;100805.50;5004541;28;45588;-72
2021/05/25 03:24:50;;;;;;;;;1.00;1.00;;;;;19.20;43.79;100801.94;4987090;28;68000;-72
2021/05/25 03:27:15;;;;;;;;;2.25;2.25;;;;;19.17;43.95;100808.13;5004554;28;45227;-72
2021/05/25 03:29:41;;;;;;;;;2.25;1.00;;;;;19.15;43.65;100817.91;5004632;28;45262;-72
2021/05/25 03:32:06;;;;;;;;;3.00;2.00;;;;;19.20;44.11;100823.09;5004559;28;45376;-72
2021/05/25 03:34:31;;;;;;;;;1.50;1.50;;;;;19.17;43.64;100816.06;5020093;28;60064;-72
2021/05/25 03:36:57;;;;;;;;;4.25;2.75;;;;;19.18;44.16;100812.53;4996011;28;45542;-72
2021/05/25 03:39:22;;;;;;;;;2.00;0.50;;;;;19.14;43.81;100813.53;5027692;28;51160;-71
2021/05/25 03:41:48;;;;;;;;;2.25;2.25;;;;;19.22;43.51;100821.28;5024102;28;45330;-71
2021/05/25 03:44:14;;;;;;;;;3.00;3.00;;;;;19.22;43.77;100823.06;5023752;28;48045;-71
2021/05/25 03:46:40;;;;;;;;;2.50;1.75;;;;;19.18;43.82;100825.75;5024214;28;45271;-72
2021/05/25 03:49:05;;;;;;;;;1.00;1.00;;;;;19.19;43.93;100827.47;5023838;28;45331;-72
2021/05/25 03:51:31;;;;;;;;;1.50;0.75;;;;;19.19;43.93;100829.25;5024398;28;45263;-71
2021/05/25 03:53:57;;;;;;;;;3.25;1.00;;;;;19.14;43.87;100826.75;5023623;28;47009;-72
2021/05/25 03:56:31;;;;;;;;;1.50;1.00;;;;;19.12;43.68;100828.56;5040679;28;45229;-71
2021/05/25 03:58:57;;;;;;;;;3.00;1.75;;;;;19.13;44.27;100843.53;5025359;28;45269;-71
2021/05/25 04:01:26;;;;;;;;;2.00;2.00;;;;;19.18;43.62;100851.34;5040809;28;45289;-71
2021/05/25 04:03:53;;;;;;;;;1.50;1.50;;;;;19.14;43.96;100849.69;5006167;28;48539;-72
2021/05/25 04:06:18;;;;;;;;;3.00;1.50;;;;;19.16;44.17;100859.31;5040619;28;46056;-71
2021/05/25 04:08:44;;;;;;;;;0.75;0.75;;;;;19.19;43.73;100859.22;5023591;28;45309;-71
2021/05/25 04:11:10;;;;;;;;;2.00;1.50;;;;;19.19;44.14;100861.88;5023764;28;45335;-71
2021/05/25 04:13:35;;;;;;;;;2.00;2.00;;;;;19.19;43.69;100864.53;5023600;28;46335;-72
2021/05/25 04:16:01;;;;;;;;;1.25;1.25;;;;;19.15;43.22;100881.41;5018626;28;45487;-72
2021/05/25 04:18:26;;;;;;;;;1.75;1.75;;;;;19.14;43.67;100884.09;5021318;28;45327;-72
2021/05/25 04:20:52;;;;;;;;;3.25;1.00;;;;;19.12;43.46;100880.63;5002685;28;65689;-71
2021/05/25 04:23:17;;;;;;;;;4.50;1.00;;;;;19.14;44.17;100884.09;5003201;28;48090;-71
2021/05/25 04:25:43;;;;;;;;;3.75;1.50;;;;;19.16;43.58;100882.25;5021391;28;45438;-71
2021/05/25 04:28:08;;;;;;;;;4.75;1.00;;;;;19.20;44.07;100890.09;4987008;28;45259;-71
2021/05/25 04:30:34;;;;;;;;;1.00;1.00;;;;;19.23;43.82;100889.16;5019985;28;45379;-71
2021/05/25 04:32:59;;;;;;;;;1.25;1.25;;;;;19.29;43.85;100888.16;5003167;28;45600;-71
2021/05/25 04:35:24;;;;;;;;;5.50;2.00;;;;;19.30;43.42;100895.19;5003482;28;45366;-71
2021/05/25 04:37:55;;;;;;;;;2.50;0.75;;;;;19.29;44.05;100893.44;5017968;28;61708;-72
2021/05/25 04:40:21;;;;;;;;;1.00;1.00;;;;;19.31;43.24;100896.91;5025473;28;45905;-71
2021/05/25 04:42:46;;;;;;;;;0.75;0.75;;;;;19.33;43.00;100911.84;5012793;28;45364;-71
2021/05/25 04:45:12;;;;;;;;;1.25;1.25;;;;;19.30;43.17;100914.56;5003165;28;45264;-71
2021/05/25 04:47:37;;;;;;;;;1.25;0.75;;;;;19.29;43.32;100907.53;5003125;28;45414;-71
2021/05/25 04:50:04;;;;;;;;;2.50;1.00;;;;;19.27;43.42;100913.75;5020909;28;45478;-71
2021/05/25 04:52:30;;;;;;;;;3.50;0.50;;;;;19.30;43.22;100922.50;4986417;28;47211;-71
2021/05/25 04:54:56;;;;;;;;;1.75;1.50;;;;;19.30;43.27;100925.16;5020850;28;45177;-71
2021/05/25 04:57:23;;;;;;;;;3.75;2.00;;;;;19.28;42.88;100918.13;5003108;28;45359;-71
2021/05/25 04:59:48;;;;;;;;;2.50;1.50;;;;;19.28;43.81;100928.72;5019727;28;45340;-71
2021/05/25 05:02:13;;;;;;;;;3.25;1.00;;;;;19.30;43.52;100927.81;5019077;28;46012;-71
2021/05/25 05:04:39;;;;;;;;;3.00;1.50;;;;;19.33;44.00;100932.16;5002869;28;46817;-66
2021/05/25 05:07:04;;;;;;;;;2.75;1.00;;;;;19.39;45.06;100914.34;4986390;28;45304;-72
2021/05/25 05:09:30;;;;;;;;;2.00;1.00;;;;;19.60;45.37;100931.50;4986359;28;45453;-73
2021/05/25 05:11:55;;;;;;;;;1.50;0.50;;;;;19.75;44.79;100931.13;5020251;28;46596;-72
2021/05/25 05:14:21;;;;;;;;;1.50;1.50;;;;;19.90;45.12;100947.53;5002394;28;45266;-75
2021/05/25 05:16:46;;;;;;;;;2.00;2.00;;;;;19.99;44.90;100945.50;5012101;28;55516;-75
2021/05/25 05:19:11;;;;;;;;;2.75;1.75;;;;;20.08;44.98;100949.69;5013726;28;52545;-75
2021/05/25 05:21:37;;;;;;;;;0.75;0.75;;;;;20.12;45.42;100934.56;5006011;28;45643;-77
2021/05/25 05:24:03;;;;;;;;;1.00;1.00;;;;;20.25;46.16;100952.78;5002611;28;45234;-70
2021/05/25 05:26:28;;;;;;;;;1.50;1.50;;;;;20.36;46.25;100951.59;5020377;28;45226;-70
2021/05/25 05:28:54;;;;;;;;;2.00;1.75;;;;;20.46;47.29;100958.41;5002558;28;45276;-75
2021/05/25 05:31:20;;;;;;;;;3.25;1.00;;;;;20.54;47.32;100964.38;5018842;28;45277;-77
2021/05/25 05:33:45;;;;;;;;;5.00;4.25;;;;;20.65;48.20;100972.88;5018445;28;54772;-67
2021/05/25 05:36:11;;;;;;;;;2.50;2.25;;;;;20.66;48.78;100964.00;5022063;28;45228;-75
2021/05/25 05:38:36;;;;;;;;;2.00;2.00;;;;;20.81;48.23;100976.84;5038709;28;45609;-75
2021/05/25 05:41:06;;;;;;;;;3.25;3.00;;;;;20.88;47.78;100978.41;5022177;28;45484;-73
2021/05/25 05:43:32;;;;;;;;;2.00;2.00;;;;;20.94;47.52;100990.63;5022865;28;45298;-81
2021/05/25 05:45:59;;;;;;;;;3.00;2.75;;;;;21.00;47.37;100978.94;5005669;28;45488;-73
2021/05/25 05:48:26;;;;;;;;;1.75;1.00;;;;;20.98;47.17;100975.47;5022432;28;45217;-72
2021/05/25 05:50:51;;;;;;;;;2.50;2.00;;;;;21.06;47.12;100982.28;5021913;28;46420;-70
2021/05/25 05:53:17;;;;;;;;;3.00;2.00;;;;;21.11;46.52;100998.94;5038670;28;45354;-70
2021/05/25 05:55:42;;;;;;;;;1.75;1.75;;;;;21.11;46.32;100990.09;5021084;28;69088;-70
2021/05/25 05:58:08;;;;;;;;;2.00;2.00;;;;;21.14;45.23;100997.97;5040122;28;45311;-71
2021/05/25 06:00:33;;;;;;;;;6.75;2.50;;;;;21.10;45.94;100999.84;5021787;28;48325;-70
2021/05/25 06:03:00;;;;;;;;;2.00;2.00;;;;;21.03;44.17;101005.41;5038965;28;62012;-71
2021/05/25 06:05:25;;;;;;;;;3.00;1.00;;;;;20.82;43.06;101010.41;5021622;28;45341;-75
2021/05/25 06:07:51;;;;;;;;;1.00;1.00;;;;;20.64;42.01;101008.28;5005307;28;45513;-75
2021/05/25 06:10:17;;;;;;;;;1.00;1.00;;;;;20.41;42.56;101005.34;5021607;28;46682;-75
2021/05/25 06:12:42;;;;;;;;;4.25;3.50;;;;;20.37;42.59;101009.00;5005383;28;45246;-71
2021/05/25 06:15:08;;;;;;;;;4.75;2.50;;;;;20.41;42.46;101006.22;5037965;28;48613;-75
2021/05/25 06:17:34;;;;;;;;;5.25;3.00;;;;;20.44;42.49;101005.31;5001507;28;45585;-79
2021/05/25 06:20:02;;;;;;;;;4.00;1.00;;;;;20.57;42.12;101025.25;5009955;28;48341;-73
2021/05/25 06:22:27;;;;;;;;;2.00;2.00;;;;;20.60;41.58;101025.19;5027132;28;45368;-77
2021/05/25 06:24:53;;;;;;;;;3.00;1.00;;;;;20.58;41.21;101024.34;5042839;28;45367;-80
2021/05/25 06:27:18;;;;;;;;;1.00;1.00;;;;;20.56;41.31;101035.00;5022690;28;64302;-80
2021/05/25 06:29:44;;;;;;;;;2.50;2.00;;;;;20.52;41.69;101029.84;5010333;28;45456;-77
2021/05/25 06:32:10;;;;;;;;;4.25;2.00;;;;;20.56;41.65;101035.00;4988604;28;45445;-78
2021/05/25 06:34:35;;;;;;;;;3.50;2.00;;;;;20.57;41.47;101027.91;5027837;28;45464;-77
2021/05/25 06:37:00;;;;;;;;;2.00;2.00;;;;;20.57;41.02;101031.44;5014166;28;45476;-76
2021/05/25 06:39:26;;;;;;;;;4.25;2.00;;;;;20.55;41.28;101030.63;5029175;28;45335;-76
2021/05/25 06:41:51;;;;;;;;;2.75;2.75;;;;;20.57;41.21;101033.22;5008238;28;45285;-80
2021/05/25 06:44:17;;;;;;;;;1.75;1.00;;;;;20.60;40.98;101043.75;5023073;28;45705;-80
2021/05/25 06:46:53;;;;;;;;;4.25;3.00;;;;;20.66;41.32;101042.69;5005357;28;45448;-79
2021/05/25 06:49:19;;;;;;;;;4.00;1.75;;;;;20.65;40.59;101036.53;5004641;28;48226;-77
2021/05/25 06:51:45;;;;;;;;;2.50;1.75;;;;;20.70;40.87;101045.25;5022078;28;62043;-80
2021/05/25 06:54:13;;;;;;;;;1.75;1.75;;;;;20.70;41.12;101047.03;5005233;28;45239;-74
2021/05/25 06:56:38;;;;;;;;;2.50;1.25;;;;;20.71;41.09;101046.09;5005165;28;45456;-75
2021/05/25 06:59:03;;;;;;;;;0.75;0.75;;;;;20.74;41.27;101038.06;5004089;28;45496;-75
2021/05/25 07:01:29;;;;;;;;;4.75;3.00;;;;;20.82;40.85;101051.97;5023072;28;48750;-76
2021/05/25 07:04:00;;;;;;;;;1.00;1.00;;;;;20.84;40.63;101055.44;5021660;28;45907;-75
2021/05/25 07:06:26;;;;;;;;;3.50;1.00;;;;;20.86;40.39;101053.66;5022602;28;45253;-75
2021/05/25 07:08:51;;;;;;;;;4.00;3.00;;;;;20.85;40.05;101051.91;5027914;28;45475;-75
2021/05/25 07:11:17;;;;;;;;;3.75;2.00;;;;;20.85;40.15;101052.78;5018951;28;60649;-72
2021/05/25 07:13:42;;;;;;;;;2.75;2.50;;;;;20.85;39.97;101050.13;5020091;28;45404;-71
2021/05/25 07:16:08;;;;;;;;;2.25;1.00;;;;;20.87;40.60;101056.25;5034075;28;45567;-75
2021/05/25 07:18:33;;;;;;;;;3.25;1.00;;;;;20.91;40.03;101054.38;4990553;28;47047;-71
2021/05/25 07:20:59;;;;;;;;;1.25;1.25;;;;;20.96;40.04;101059.56;5030326;28;45540;-72
2021/05/25 07:23:24;;;;;;;;;3.75;1.50;;;;;20.99;40.00;101068.28;5009416;28;60158;-71
2021/05/25 07:25:49;;;;;;;;;1.75;1.75;;;;;20.99;40.01;101062.13;5001777;28;45688;-71
2021/05/25 07:28:15;;;;;;;;;3.00;2.00;;;;;21.03;39.57;101059.34;5002680;28;66224;-70
2021/05/25 07:30:41;;;;;;;;;3.00;1.00;;;;;21.11;39.81;101064.41;4980449;28;60818;-71
2021/05/25 07:33:06;;;;;;;;;2.50;2.00;;;;;21.16;39.87;101059.84;5010669;28;45474;-74
2021/05/25 07:35:32;;;;;;;;;3.00;2.00;;;;;21.23;39.76;101072.03;4987829;28;63722;-72
2021/05/25 07:37:58;;;;;;;;;1.00;1.00;;;;;21.24;39.83;101067.59;4994229;28;45426;-71
2021/05/25 07:40:23;;;;;;;;;2.25;1.25;;;;;21.27;39.20;101062.19;5007881;28;45742;-71
2021/05/25 07:42:49;;;;;;;;;1.00;1.00;;;;;21.18;38.91;101063.31;4974862;28;45422;-72
2021/05/25 07:45:15;;;;;;;;;2.00;2.00;;;;;21.17;38.70;101078.38;5006271;28;45538;-72
2021/05/25 07:47:40;;;;;;;;;2.75;2.00;;;;;21.13;38.54;101073.22;5008637;28;46434;-72
2021/05/25 07:50:13;;;;;;;;;2.25;1.00;;;;;21.09;38.43;101069.75;5010251;28;45330;-72
2021/05/25 07:52:41;;;;;;;;;4.00;3.00;;;;;21.05;38.44;101077.88;4995833;28;45667;-72
2021/05/25 07:55:08;;;;;;;;;2.25;1.00;;;;;21.03;38.07;101083.22;5015193;28;45450;-71
2021/05/25 07:57:33;;;;;;;;;2.00;2.00;;;;;20.97;38.47;101071.91;4971378;28;47497;-71
2021/05/25 07:59:59;;;;;;;;;2.50;1.00;;;;;21.02;38.13;101072.63;4974771;28;46389;-71
2021/05/25 08:02:24;;;;;;;;;2.50;2.50;;;;;20.90;37.72;101076.50;4992946;28;58406;-72
2021/05/25 08:04:49;;;;;;;;;1.50;1.00;;;;;20.86;38.12;101082.84;5013588;28;46350;-71
2021/05/25 08:07:15;;;;;;;;;1.25;1.25;;;;;20.82;38.09;101094.44;5012643;28;59267;-72
2021/05/25 08:09:40;;;;;;;;;2.75;2.00;;;;;20.83;38.22;101088.19;4993765;28;45942;-70
2021/05/25 08:12:06;;;;;;;;;2.00;2.00;;;;;20.86;38.28;101093.44;4978451;28;58680;-73
2021/05/25 08:14:32;;;;;;;;;1.25;1.25;;;;;20.85;38.16;101086.41;5010645;28;45454;-75
2021/05/25 08:17:06;;;;;;;;;1.25;0.25;;;;;20.94;38.17;101095.84;4978651;28;48172;-74
2021/05/25 08:19:34;;;;;;;;;1.75;1.00;;;;;20.91;38.01;101094.16;5010135;28;45906;-70
2021/05/25 08:21:59;;;;;;;;;1.25;1.00;;;;;20.88;38.25;101091.59;5008489;28;45531;-69
2021/05/25 08:24:25;;;;;;;;;0.00;0.00;;;;;20.97;38.27;101099.31;5008180;28;64583;-70
2021/05/25 08:26:50;;;;;;;;;2.25;1.00;;;;;21.04;38.34;101100.03;5025444;28;46422;-70
2021/05/25 08:29:15;;;;;;;;;4.50;2.25;;;;;21.08;38.11;101104.31;4988563;28;45322;-69
2021/05/25 08:31:41;;;;;;;;;2.00;0.25;;;;;21.14;37.88;101105.00;5007079;28;52583;-70
2021/05/25 08:34:06;;;;;;;;;3.00;0.25;;;;;21.18;37.82;101105.78;5011363;28;45640;-70
2021/05/25 08:36:32;;;;;;;;;1.25;1.00;;;;;21.23;38.01;101103.00;5001429;28;48142;-69
2021/05/25 08:38:58;;;;;;;;;1.00;1.00;;;;;21.29;37.88;101113.50;5000182;28;45467;-71
2021/05/25 08:41:23;;;;;;;;;3.50;3.50;;;;;21.31;37.79;101101.91;5019047;28;45496;-72
2021/05/25 08:43:49;;;;;;;;;1.00;1.00;;;;;21.28;37.71;101107.28;5004560;28;45493;-70
2021/05/25 08:46:15;;;;;;;;;1.25;1.25;;;;;21.28;37.65;101109.94;5004821;28;45540;-80
2021/05/25 08:48:41;;;;;;;;;2.00;1.50;;;;;21.29;37.42;101110.84;5009515;28;45399;-70
2021/05/25 08:51:06;;;;;;;;;3.00;1.50;;;;;21.17;37.32;101096.09;5018877;28;45367;-70
2021/05/25 08:53:32;;;;;;;;;1.50;1.00;;;;;21.10;37.13;101103.34;5005245;28;46345;-71
2021/05/25 08:55:57;;;;;;;;;2.75;1.75;;;;;21.05;36.83;101099.97;5002863;28;46019;-69
2021/05/25 08:58:26;;;;;;;;;1.25;0.75;;;;;20.91;37.08;101083.56;5008665;28;45431;-70
2021/05/25 09:00:53;;;;;;;;;2.50;0.75;;;;;20.95;36.95;101097.63;5012746;28;45452;-70
2021/05/25 09:03:18;;;;;;;;;4.25;1.00;;;;;20.87;36.42;101105.78;4997374;28;45518;-72
2021/05/25 09:05:48;;;;;;;;;2.00;1.25;;;;;20.82;36.54;101115.66;5000187;28;48185;-70
2021/05/25 09:08:13;;;;;;;;;2.75;1.75;;;;;20.77;37.03;101105.19;5025646;28;45451;-71
2021/05/25 09:13:12;;;;;;;;;3.50;2.00;;;;;20.80;37.00;101104.22;5014587;28;45431;-68
2021/05/25 09:15:42;;;;;;;;;2.50;1.00;;;;;20.83;36.84;101104.13;5027388;28;45532;-70
2021/05/25 09:18:12;;;;;;;;;1.00;1.00;;;;;20.87;37.03;101106.66;5015563;28;45527;-71
2021/05/25 09:20:39;;;;;;;;;1.25;1.25;;;;;20.91;37.12;101101.25;4993934;28;45266;-70
2021/05/25 09:23:05;;;;;;;;;3.75;2.00;;;;;20.96;37.38;101104.66;5001841;28;45857;-71
2021/05/25 09:25:32;;;;;;;;;1.75;1.75;;;;;21.03;37.51;101114.22;5018341;28;45613;-70
2021/05/25 09:28:04;;;;;;;;;3.00;3.00;;;;;21.08;37.86;101115.78;5016995;28;46442;-74
2021/05/25 09:30:33;;;;;;;;;4.50;1.75;;;;;21.14;37.03;101106.81;5005133;28;45605;-72
2021/05/25 09:33:02;;;;;;;;;2.00;2.00;;;;;21.18;37.75;101093.38;4998073;28;45565;-73
2021/05/25 09:35:32;;;;;;;;;2.00;1.00;;;;;21.18;37.31;101085.41;5007164;28;45447;-72
2021/05/25 09:37:59;;;;;;;;;2.50;2.00;;;;;21.28;37.53;101093.13;5004860;28;45495;-73
2021/05/25 09:40:28;;;;;;;;;3.75;3.75;;;;;21.25;37.18;101078.16;5002871;28;45533;-73
2021/05/25 09:43:40;;;;;;;;;1.25;1.25;;;;;21.28;37.02;101091.34;5027939;28;45636;-73
2021/05/25 09:46:22;;;;;;;;;3.25;2.00;;;;;21.29;37.34;101092.25;5025781;28;45484;-72
2021/05/25 09:48:53;;;;;;;;;1.00;1.00;;;;;21.34;37.29;101090.31;5015357;28;45862;-73
2021/05/25 09:51:34;;;;;;;;;4.75;2.25;;;;;21.23;36.97;101065.84;5003561;28;45455;-77
2021/05/25 09:54:35;;;;;;;;;;;;;;;;;;;;;
2021/05/25 09:57:12;;;;;;;;;1.75;1.00;;;;;21.34;37.09;101061.97;5006043;28;75272;-73
2021/05/25 09:59:41;;;;;;;;;3.00;2.00;;;;;21.27;37.00;101057.75;5014660;28;45547;-75
2021/05/25 10:02:16;;;;;;;;;2.00;1.00;;;;;21.53;36.29;101096.81;5020804;28;45476;-74
2021/05/25 10:05:07;;;;;;;;;1.00;1.00;;;;;21.48;36.48;101103.19;4998100;28;45528;-74
2021/05/25 10:07:34;;;;;;;;;1.00;1.00;;;;;21.39;36.50;101102.56;5008976;28;45880;-73
2021/05/25 10:10:11;;;;;;;;;1.00;1.00;;;;;21.36;36.86;101110.59;5011919;28;45403;-73
2021/05/25 10:12:41;;;;;;;;;2.00;0.25;;;;;21.34;36.53;101122.19;4996836;28;45700;-74
2021/05/25 10:15:11;;;;;;;;;1.00;1.00;;;;;21.27;36.75;101118.81;5006358;28;45452;-74
2021/05/25 10:20:49;;;;;;;;;1.00;1.00;;;;;21.09;37.24;101114.00;5008121;28;45389;-74
2021/05/25 10:23:19;;;;;;;;;0.00;0.00;;;;;21.09;37.62;101117.53;4988803;28;45400;-75
2021/05/25 10:26:34;;;;;;;;;1.00;1.00;;;;;20.94;38.15;101091.44;4989034;28;45398;-75
2021/05/25 10:29:04;;;;;;;;;2.00;2.00;;;;;21.19;38.74;101144.69;5002198;28;47081;-74
2021/05/25 10:31:37;;;;;;;;;4.00;2.75;;;;;21.19;38.62;101144.69;5005137;28;45322;-75
2021/05/25 10:34:24;;;;;;;;;3.75;2.00;;;;;21.05;38.93;101120.34;4988018;28;45503;-74
2021/05/25 10:37:06;;;;;;;;;2.50;2.50;;;;;21.10;39.25;101131.66;5011801;28;45620;-74
2021/05/25 10:39:47;;;;;;;;;2.25;2.00;;;;;21.20;39.47;101149.09;5005957;28;47108;-74
2021/05/25 10:42:21;;;;;;;;;3.25;2.25;;;;;21.27;39.61;101171.91;5010791;28;45261;-74
2021/05/25 10:45:09;;;;;;;;;2.00;1.00;;;;;21.29;40.03;101166.59;5041325;28;45324;-74
2021/05/25 10:47:37;;;;;;;;;1.00;1.00;;;;;21.30;39.97;101169.19;5039513;28;45403;-72
2021/05/25 10:52:38;;;;;;;;;2.25;2.25;;;;;21.14;40.46;101126.25;5005585;28;45455;-74
2021/05/25 10:55:04;;;;;;;;;3.00;3.00;;;;;21.41;40.61;101147.66;5005151;28;45452;-74
2021/05/25 10:57:37;;;;;;;;;2.50;2.50;;;;;21.52;40.72;101149.97;5020678;28;45566;-74
2021/05/25 11:00:12;;;;;;;;;2.25;2.25;;;;;21.55;40.47;101149.91;5042284;28;45364;-74
2021/05/25 11:02:47;;;;;;;;;2.00;2.00;;;;;21.59;40.78;101148.88;5042190;28;45362;-74
2021/05/25 11:05:28;;;;;;;;;2.00;2.00;;;;;21.67;40.49;101152.19;5034140;28;45409;-74
2021/05/25 11:07:54;;;;;;;;;1.75;1.75;;;;;21.70;40.36;101142.31;5034081;28;45439;-73
2021/05/25 11:10:28;;;;;;;;;0.00;0.00;;;;;21.72;40.25;101140.50;5022142;28;45429;-72
2021/05/25 11:16:14;;;;;;;;;3.00;1.25;;;;;21.71;39.84;101136.09;5024355;28;45427;-73
2021/05/25 11:19:06;;;;;;;;;1.00;1.00;;;;;21.72;39.50;101150.28;5023955;28;45473;-71
2021/05/25 11:27:29;;;;;;;;;3.50;1.75;;;;;21.84;39.12;101139.25;5057814;28;45430;-72
2021/05/25 11:30:00;;;;;;;;;2.00;2.00;;;;;21.86;38.82;101139.19;5036756;28;45494;-73
2021/05/25 11:32:27;;;;;;;;;2.00;2.00;;;;;21.85;38.96;101140.13;5020337;28;45706;-72
2021/05/25 11:35:03;;;;;;;;;2.50;2.00;;;;;21.84;38.74;101136.59;4987550;28;45260;-73
2021/05/25 11:37:34;;;;;;;;;2.75;1.00;;;;;21.81;38.34;101128.75;5017013;28;45347;-73
2021/05/25 11:39:59;;;;;;;;;1.00;1.00;;;;;21.80;38.58;101128.75;5010639;28;45870;-73
2021/05/25 11:42:26;;;;;;;;;1.75;1.75;;;;;21.82;38.39;101130.47;5027924;28;46257;-73
2021/05/25 11:44:52;;;;;;;;;2.00;2.00;;;;;21.82;37.97;101118.97;5021720;28;45265;-72
2021/05/25 11:47:18;;;;;;;;;2.75;2.00;;;;;21.83;37.97;101116.25;5004264;28;45338;-72